sensor_id;sensor_type;location;lat;lon;timestamp;P1;durP1;ratioP1;P2;durP2;ratioP2
84510;SDS011;74730;43.858;18.424;2024-01-07T00:00:00;6.20;;;3.00;;
84510;SDS011;74730;43.858;18.424;2024-01-07T00:02:25;8.10;;;3.10;;
84510;SDS011;74730;43.858;18.424;2024-01-07T00:04:51;7.97;;;2.78;;
84510;SDS011;74730;43.858;18.424;2024-01-07T00:07:17;8.52;;;3.30;;
84510;SDS011;74730;43.858;18.424;2024-01-07T00:09:42;7.07;;;3.70;;
84510;SDS011;74730;43.858;18.424;2024-01-07T00:12:08;5.32;;;2.63;;
84510;SDS011;74730;43.858;18.424;2024-01-07T00:14:33;5.55;;;2.95;;
84510;SDS011;74730;43.858;18.424;2024-01-07T00:16:59;4.10;;;2.60;;
84510;SDS011;74730;43.858;18.424;2024-01-07T00:19:24;7.05;;;2.75;;
84510;SDS011;74730;43.858;18.424;2024-01-07T00:21:50;5.75;;;2.50;;
84510;SDS011;74730;43.858;18.424;2024-01-07T00:24:16;3.63;;;2.63;;
84510;SDS011;74730;43.858;18.424;2024-01-07T00:26:41;4.82;;;2.97;;
84510;SDS011;74730;43.858;18.424;2024-01-07T00:29:07;7.07;;;3.38;;
84510;SDS011;74730;43.858;18.424;2024-01-07T00:31:32;4.20;;;2.80;;
84510;SDS011;74730;43.858;18.424;2024-01-07T00:33:58;7.57;;;2.65;;
84510;SDS011;74730;43.858;18.424;2024-01-07T00:36:24;7.97;;;2.70;;
84510;SDS011;74730;43.858;18.424;2024-01-07T00:38:49;7.53;;;3.22;;
84510;SDS011;74730;43.858;18.424;2024-01-07T00:41:15;7.55;;;3.47;;
84510;SDS011;74730;43.858;18.424;2024-01-07T00:43:41;6.13;;;3.38;;
84510;SDS011;74730;43.858;18.424;2024-01-07T00:46:06;5.65;;;3.70;;
84510;SDS011;74730;43.858;18.424;2024-01-07T00:48:32;5.47;;;2.97;;
84510;SDS011;74730;43.858;18.424;2024-01-07T00:50:57;6.00;;;3.13;;
84510;SDS011;74730;43.858;18.424;2024-01-07T00:53:23;3.88;;;2.65;;
84510;SDS011;74730;43.858;18.424;2024-01-07T00:55:49;7.18;;;2.60;;
84510;SDS011;74730;43.858;18.424;2024-01-07T00:58:15;5.53;;;3.00;;
84510;SDS011;74730;43.858;18.424;2024-01-07T01:00:41;8.25;;;3.22;;
84510;SDS011;74730;43.858;18.424;2024-01-07T01:03:06;8.77;;;3.20;;
84510;SDS011;74730;43.858;18.424;2024-01-07T01:05:32;12.18;;;3.63;;
84510;SDS011;74730;43.858;18.424;2024-01-07T01:07:58;20.27;;;6.18;;
84510;SDS011;74730;43.858;18.424;2024-01-07T01:10:23;19.77;;;6.50;;
84510;SDS011;74730;43.858;18.424;2024-01-07T01:12:50;16.60;;;5.10;;
84510;SDS011;74730;43.858;18.424;2024-01-07T01:15:17;12.63;;;5.93;;
84510;SDS011;74730;43.858;18.424;2024-01-07T01:17:43;6.85;;;3.13;;
84510;SDS011;74730;43.858;18.424;2024-01-07T01:20:09;6.85;;;3.33;;
84510;SDS011;74730;43.858;18.424;2024-01-07T01:22:34;5.03;;;2.78;;
84510;SDS011;74730;43.858;18.424;2024-01-07T01:25:00;5.13;;;3.00;;
84510;SDS011;74730;43.858;18.424;2024-01-07T01:27:26;7.00;;;3.40;;
84510;SDS011;74730;43.858;18.424;2024-01-07T01:29:52;6.60;;;3.33;;
84510;SDS011;74730;43.858;18.424;2024-01-07T01:32:18;4.97;;;3.38;;
84510;SDS011;74730;43.858;18.424;2024-01-07T01:34:43;9.38;;;3.47;;
84510;SDS011;74730;43.858;18.424;2024-01-07T01:37:09;8.75;;;3.25;;
84510;SDS011;74730;43.858;18.424;2024-01-07T01:39:34;4.55;;;3.53;;
84510;SDS011;74730;43.858;18.424;2024-01-07T01:42:00;5.22;;;2.72;;
84510;SDS011;74730;43.858;18.424;2024-01-07T01:44:26;6.35;;;2.80;;
84510;SDS011;74730;43.858;18.424;2024-01-07T01:46:55;8.05;;;2.83;;
84510;SDS011;74730;43.858;18.424;2024-01-07T01:49:21;5.38;;;3.10;;
84510;SDS011;74730;43.858;18.424;2024-01-07T01:51:47;7.63;;;3.20;;
84510;SDS011;74730;43.858;18.424;2024-01-07T01:54:12;6.88;;;2.95;;
84510;SDS011;74730;43.858;18.424;2024-01-07T01:56:38;7.53;;;3.65;;
84510;SDS011;74730;43.858;18.424;2024-01-07T01:59:04;6.32;;;3.63;;
84510;SDS011;74730;43.858;18.424;2024-01-07T02:01:30;6.38;;;3.67;;
84510;SDS011;74730;43.858;18.424;2024-01-07T02:03:56;7.07;;;3.65;;
84510;SDS011;74730;43.858;18.424;2024-01-07T02:06:23;4.82;;;3.00;;
84510;SDS011;74730;43.858;18.424;2024-01-07T02:08:49;7.63;;;3.60;;
84510;SDS011;74730;43.858;18.424;2024-01-07T02:11:19;8.32;;;4.03;;
84510;SDS011;74730;43.858;18.424;2024-01-07T02:13:45;7.68;;;4.00;;
84510;SDS011;74730;43.858;18.424;2024-01-07T02:16:11;6.95;;;3.78;;
84510;SDS011;74730;43.858;18.424;2024-01-07T02:18:38;6.88;;;3.78;;
84510;SDS011;74730;43.858;18.424;2024-01-07T02:21:07;10.23;;;3.75;;
84510;SDS011;74730;43.858;18.424;2024-01-07T02:23:33;6.78;;;3.42;;
84510;SDS011;74730;43.858;18.424;2024-01-07T02:25:58;7.03;;;3.20;;
84510;SDS011;74730;43.858;18.424;2024-01-07T02:28:24;9.82;;;3.42;;
84510;SDS011;74730;43.858;18.424;2024-01-07T02:30:49;6.00;;;3.67;;
84510;SDS011;74730;43.858;18.424;2024-01-07T02:33:15;5.70;;;3.35;;
84510;SDS011;74730;43.858;18.424;2024-01-07T02:35:40;5.47;;;3.17;;
84510;SDS011;74730;43.858;18.424;2024-01-07T02:38:06;5.68;;;3.20;;
84510;SDS011;74730;43.858;18.424;2024-01-07T02:40:31;7.68;;;3.67;;
84510;SDS011;74730;43.858;18.424;2024-01-07T02:42:57;7.05;;;4.20;;
84510;SDS011;74730;43.858;18.424;2024-01-07T02:45:23;5.78;;;3.40;;
84510;SDS011;74730;43.858;18.424;2024-01-07T02:47:49;7.85;;;3.90;;
84510;SDS011;74730;43.858;18.424;2024-01-07T02:50:15;6.72;;;3.63;;
84510;SDS011;74730;43.858;18.424;2024-01-07T02:52:41;9.68;;;3.58;;
84510;SDS011;74730;43.858;18.424;2024-01-07T02:55:08;4.60;;;3.13;;
84510;SDS011;74730;43.858;18.424;2024-01-07T02:57:33;6.88;;;3.72;;
84510;SDS011;74730;43.858;18.424;2024-01-07T02:59:59;7.30;;;3.70;;
84510;SDS011;74730;43.858;18.424;2024-01-07T03:02:25;5.88;;;2.90;;
84510;SDS011;74730;43.858;18.424;2024-01-07T03:04:50;8.15;;;3.97;;
84510;SDS011;74730;43.858;18.424;2024-01-07T03:07:16;6.40;;;3.60;;
84510;SDS011;74730;43.858;18.424;2024-01-07T03:09:42;9.15;;;3.55;;
84510;SDS011;74730;43.858;18.424;2024-01-07T03:12:07;5.38;;;3.72;;
84510;SDS011;74730;43.858;18.424;2024-01-07T03:14:33;5.45;;;3.35;;
84510;SDS011;74730;43.858;18.424;2024-01-07T03:16:58;6.43;;;3.67;;
84510;SDS011;74730;43.858;18.424;2024-01-07T03:19:24;6.07;;;3.40;;
84510;SDS011;74730;43.858;18.424;2024-01-07T03:21:50;5.28;;;3.50;;
84510;SDS011;74730;43.858;18.424;2024-01-07T03:24:15;6.75;;;3.22;;
84510;SDS011;74730;43.858;18.424;2024-01-07T03:26:41;6.15;;;3.55;;
84510;SDS011;74730;43.858;18.424;2024-01-07T03:29:06;10.95;;;4.03;;
84510;SDS011;74730;43.858;18.424;2024-01-07T03:31:32;7.88;;;4.43;;
84510;SDS011;74730;43.858;18.424;2024-01-07T03:33:58;11.70;;;5.50;;
84510;SDS011;74730;43.858;18.424;2024-01-07T03:36:24;13.13;;;5.70;;
84510;SDS011;74730;43.858;18.424;2024-01-07T03:38:49;12.40;;;5.60;;
84510;SDS011;74730;43.858;18.424;2024-01-07T03:41:18;14.80;;;7.00;;
84510;SDS011;74730;43.858;18.424;2024-01-07T03:43:45;20.95;;;9.18;;
84510;SDS011;74730;43.858;18.424;2024-01-07T03:46:12;12.30;;;8.00;;
84510;SDS011;74730;43.858;18.424;2024-01-07T03:48:37;15.68;;;7.10;;
84510;SDS011;74730;43.858;18.424;2024-01-07T03:51:03;15.45;;;7.72;;
84510;SDS011;74730;43.858;18.424;2024-01-07T03:53:29;14.73;;;6.63;;
84510;SDS011;74730;43.858;18.424;2024-01-07T03:55:54;12.35;;;6.10;;
84510;SDS011;74730;43.858;18.424;2024-01-07T03:58:20;16.35;;;6.57;;
84510;SDS011;74730;43.858;18.424;2024-01-07T04:00:45;11.77;;;5.97;;
84510;SDS011;74730;43.858;18.424;2024-01-07T04:03:11;9.68;;;6.28;;
84510;SDS011;74730;43.858;18.424;2024-01-07T04:05:36;13.10;;;5.97;;
84510;SDS011;74730;43.858;18.424;2024-01-07T04:08:03;13.07;;;4.53;;
84510;SDS011;74730;43.858;18.424;2024-01-07T04:10:29;10.85;;;4.90;;
84510;SDS011;74730;43.858;18.424;2024-01-07T04:12:54;10.27;;;4.88;;
84510;SDS011;74730;43.858;18.424;2024-01-07T04:15:20;7.43;;;4.18;;
84510;SDS011;74730;43.858;18.424;2024-01-07T04:17:46;6.70;;;4.55;;
84510;SDS011;74730;43.858;18.424;2024-01-07T04:20:14;9.15;;;4.32;;
84510;SDS011;74730;43.858;18.424;2024-01-07T04:22:40;9.65;;;5.75;;
84510;SDS011;74730;43.858;18.424;2024-01-07T04:25:06;11.63;;;5.90;;
84510;SDS011;74730;43.858;18.424;2024-01-07T04:27:36;8.88;;;4.95;;
84510;SDS011;74730;43.858;18.424;2024-01-07T04:30:03;9.05;;;5.03;;
84510;SDS011;74730;43.858;18.424;2024-01-07T04:32:29;10.90;;;5.78;;
84510;SDS011;74730;43.858;18.424;2024-01-07T04:34:55;7.78;;;4.60;;
84510;SDS011;74730;43.858;18.424;2024-01-07T04:37:22;12.82;;;6.25;;
84510;SDS011;74730;43.858;18.424;2024-01-07T04:39:47;10.68;;;6.30;;
84510;SDS011;74730;43.858;18.424;2024-01-07T04:42:13;9.05;;;5.50;;
84510;SDS011;74730;43.858;18.424;2024-01-07T04:44:39;8.80;;;6.18;;
84510;SDS011;74730;43.858;18.424;2024-01-07T04:47:05;11.85;;;5.65;;
84510;SDS011;74730;43.858;18.424;2024-01-07T04:49:59;10.20;;;5.15;;
84510;SDS011;74730;43.858;18.424;2024-01-07T04:52:25;9.65;;;5.40;;
84510;SDS011;74730;43.858;18.424;2024-01-07T04:54:51;14.93;;;4.93;;
84510;SDS011;74730;43.858;18.424;2024-01-07T04:57:18;14.98;;;5.88;;
84510;SDS011;74730;43.858;18.424;2024-01-07T04:59:43;9.50;;;5.65;;
84510;SDS011;74730;43.858;18.424;2024-01-07T05:02:10;11.07;;;5.38;;
84510;SDS011;74730;43.858;18.424;2024-01-07T05:04:35;13.20;;;5.85;;
84510;SDS011;74730;43.858;18.424;2024-01-07T05:07:01;11.70;;;5.63;;
84510;SDS011;74730;43.858;18.424;2024-01-07T05:09:27;11.65;;;5.70;;
84510;SDS011;74730;43.858;18.424;2024-01-07T05:11:53;19.92;;;7.40;;
84510;SDS011;74730;43.858;18.424;2024-01-07T05:14:19;10.07;;;6.63;;
84510;SDS011;74730;43.858;18.424;2024-01-07T05:16:44;11.02;;;5.50;;
84510;SDS011;74730;43.858;18.424;2024-01-07T05:19:10;17.08;;;8.80;;
84510;SDS011;74730;43.858;18.424;2024-01-07T05:21:35;11.32;;;6.35;;
84510;SDS011;74730;43.858;18.424;2024-01-07T05:24:01;9.55;;;6.40;;
84510;SDS011;74730;43.858;18.424;2024-01-07T05:26:26;12.88;;;6.88;;
84510;SDS011;74730;43.858;18.424;2024-01-07T05:28:52;16.17;;;7.68;;
84510;SDS011;74730;43.858;18.424;2024-01-07T05:31:18;13.63;;;7.22;;
84510;SDS011;74730;43.858;18.424;2024-01-07T05:33:44;14.70;;;6.95;;
84510;SDS011;74730;43.858;18.424;2024-01-07T05:36:10;14.48;;;7.95;;
84510;SDS011;74730;43.858;18.424;2024-01-07T05:38:36;15.32;;;8.07;;
84510;SDS011;74730;43.858;18.424;2024-01-07T05:41:03;15.25;;;8.70;;
84510;SDS011;74730;43.858;18.424;2024-01-07T05:43:28;13.57;;;8.00;;
84510;SDS011;74730;43.858;18.424;2024-01-07T05:45:55;13.18;;;7.50;;
84510;SDS011;74730;43.858;18.424;2024-01-07T05:48:21;15.13;;;7.03;;
84510;SDS011;74730;43.858;18.424;2024-01-07T05:50:47;15.30;;;6.47;;
84510;SDS011;74730;43.858;18.424;2024-01-07T05:53:13;11.40;;;7.13;;
84510;SDS011;74730;43.858;18.424;2024-01-07T05:55:39;10.32;;;6.47;;
84510;SDS011;74730;43.858;18.424;2024-01-07T05:58:04;14.73;;;7.47;;
84510;SDS011;74730;43.858;18.424;2024-01-07T06:00:30;10.93;;;6.40;;
84510;SDS011;74730;43.858;18.424;2024-01-07T06:02:56;11.95;;;6.43;;
84510;SDS011;74730;43.858;18.424;2024-01-07T06:05:21;11.07;;;7.00;;
84510;SDS011;74730;43.858;18.424;2024-01-07T06:07:47;8.13;;;5.18;;
84510;SDS011;74730;43.858;18.424;2024-01-07T06:10:12;9.52;;;5.70;;
84510;SDS011;74730;43.858;18.424;2024-01-07T06:12:38;8.40;;;5.38;;
84510;SDS011;74730;43.858;18.424;2024-01-07T06:15:03;9.50;;;5.20;;
84510;SDS011;74730;43.858;18.424;2024-01-07T06:17:30;7.95;;;4.68;;
84510;SDS011;74730;43.858;18.424;2024-01-07T06:19:56;6.47;;;4.07;;
84510;SDS011;74730;43.858;18.424;2024-01-07T06:22:22;7.13;;;4.63;;
84510;SDS011;74730;43.858;18.424;2024-01-07T06:24:47;7.43;;;4.45;;
84510;SDS011;74730;43.858;18.424;2024-01-07T06:27:13;6.85;;;5.00;;
84510;SDS011;74730;43.858;18.424;2024-01-07T06:29:38;6.13;;;4.85;;
84510;SDS011;74730;43.858;18.424;2024-01-07T06:32:04;9.65;;;4.97;;
84510;SDS011;74730;43.858;18.424;2024-01-07T06:34:30;10.25;;;5.03;;
84510;SDS011;74730;43.858;18.424;2024-01-07T06:36:56;8.10;;;4.93;;
84510;SDS011;74730;43.858;18.424;2024-01-07T06:39:21;7.90;;;4.65;;
84510;SDS011;74730;43.858;18.424;2024-01-07T06:41:47;8.15;;;4.30;;
84510;SDS011;74730;43.858;18.424;2024-01-07T06:44:12;8.55;;;5.35;;
84510;SDS011;74730;43.858;18.424;2024-01-07T06:46:38;7.28;;;5.22;;
84510;SDS011;74730;43.858;18.424;2024-01-07T06:49:03;9.95;;;6.00;;
84510;SDS011;74730;43.858;18.424;2024-01-07T06:51:29;10.05;;;6.40;;
84510;SDS011;74730;43.858;18.424;2024-01-07T06:53:54;11.23;;;6.18;;
84510;SDS011;74730;43.858;18.424;2024-01-07T06:56:20;15.23;;;6.80;;
84510;SDS011;74730;43.858;18.424;2024-01-07T06:58:46;11.38;;;6.38;;
84510;SDS011;74730;43.858;18.424;2024-01-07T07:01:11;12.85;;;5.90;;
84510;SDS011;74730;43.858;18.424;2024-01-07T07:03:37;10.70;;;5.90;;
84510;SDS011;74730;43.858;18.424;2024-01-07T07:06:02;10.93;;;5.60;;
84510;SDS011;74730;43.858;18.424;2024-01-07T07:08:28;11.82;;;6.43;;
84510;SDS011;74730;43.858;18.424;2024-01-07T07:10:55;14.93;;;7.03;;
84510;SDS011;74730;43.858;18.424;2024-01-07T07:13:20;12.18;;;6.60;;
84510;SDS011;74730;43.858;18.424;2024-01-07T07:15:46;11.55;;;6.70;;
84510;SDS011;74730;43.858;18.424;2024-01-07T07:18:12;15.00;;;8.95;;
84510;SDS011;74730;43.858;18.424;2024-01-07T07:20:38;18.88;;;10.40;;
84510;SDS011;74730;43.858;18.424;2024-01-07T07:23:03;34.72;;;17.00;;
84510;SDS011;74730;43.858;18.424;2024-01-07T07:25:29;38.05;;;19.98;;
84510;SDS011;74730;43.858;18.424;2024-01-07T07:27:54;49.92;;;24.52;;
84510;SDS011;74730;43.858;18.424;2024-01-07T07:30:21;45.97;;;25.13;;
84510;SDS011;74730;43.858;18.424;2024-01-07T07:32:47;53.67;;;26.33;;
84510;SDS011;74730;43.858;18.424;2024-01-07T07:35:12;48.15;;;24.55;;
84510;SDS011;74730;43.858;18.424;2024-01-07T07:37:38;53.63;;;24.63;;
84510;SDS011;74730;43.858;18.424;2024-01-07T07:40:03;53.50;;;25.65;;
84510;SDS011;74730;43.858;18.424;2024-01-07T07:42:29;53.42;;;24.27;;
84510;SDS011;74730;43.858;18.424;2024-01-07T07:44:55;54.30;;;26.73;;
84510;SDS011;74730;43.858;18.424;2024-01-07T07:47:20;55.83;;;25.67;;
84510;SDS011;74730;43.858;18.424;2024-01-07T07:49:46;48.70;;;27.08;;
84510;SDS011;74730;43.858;18.424;2024-01-07T07:52:12;48.70;;;24.55;;
84510;SDS011;74730;43.858;18.424;2024-01-07T07:54:39;45.58;;;23.65;;
84510;SDS011;74730;43.858;18.424;2024-01-07T07:57:05;47.95;;;24.50;;
84510;SDS011;74730;43.858;18.424;2024-01-07T07:59:30;52.30;;;25.00;;
84510;SDS011;74730;43.858;18.424;2024-01-07T08:01:56;49.67;;;25.75;;
84510;SDS011;74730;43.858;18.424;2024-01-07T08:04:21;49.83;;;25.52;;
84510;SDS011;74730;43.858;18.424;2024-01-07T08:06:47;50.03;;;25.80;;
84510;SDS011;74730;43.858;18.424;2024-01-07T08:09:13;45.50;;;23.42;;
84510;SDS011;74730;43.858;18.424;2024-01-07T08:11:39;43.00;;;22.88;;
84510;SDS011;74730;43.858;18.424;2024-01-07T08:14:04;42.85;;;22.33;;
84510;SDS011;74730;43.858;18.424;2024-01-07T08:16:31;41.20;;;22.10;;
84510;SDS011;74730;43.858;18.424;2024-01-07T08:18:57;43.67;;;22.88;;
84510;SDS011;74730;43.858;18.424;2024-01-07T08:21:22;40.00;;;20.45;;
84510;SDS011;74730;43.858;18.424;2024-01-07T08:23:48;34.40;;;19.65;;
84510;SDS011;74730;43.858;18.424;2024-01-07T08:26:20;40.55;;;21.17;;
84510;SDS011;74730;43.858;18.424;2024-01-07T08:31:11;39.40;;;21.23;;
84510;SDS011;74730;43.858;18.424;2024-01-07T08:33:37;37.72;;;20.90;;
84510;SDS011;74730;43.858;18.424;2024-01-07T08:36:02;39.88;;;20.23;;
84510;SDS011;74730;43.858;18.424;2024-01-07T08:38:29;41.65;;;20.98;;
84510;SDS011;74730;43.858;18.424;2024-01-07T08:40:55;41.15;;;21.95;;
84510;SDS011;74730;43.858;18.424;2024-01-07T08:43:21;39.40;;;21.88;;
84510;SDS011;74730;43.858;18.424;2024-01-07T08:45:46;44.47;;;24.15;;
84510;SDS011;74730;43.858;18.424;2024-01-07T08:48:12;45.00;;;24.08;;
84510;SDS011;74730;43.858;18.424;2024-01-07T08:50:38;49.80;;;22.83;;
84510;SDS011;74730;43.858;18.424;2024-01-07T08:53:04;50.45;;;25.92;;
84510;SDS011;74730;43.858;18.424;2024-01-07T08:55:30;50.85;;;25.98;;
84510;SDS011;74730;43.858;18.424;2024-01-07T08:57:56;53.53;;;26.17;;
84510;SDS011;74730;43.858;18.424;2024-01-07T09:00:22;46.03;;;23.98;;
84510;SDS011;74730;43.858;18.424;2024-01-07T09:02:51;43.88;;;23.73;;
84510;SDS011;74730;43.858;18.424;2024-01-07T09:05:17;50.90;;;26.48;;
84510;SDS011;74730;43.858;18.424;2024-01-07T09:07:42;47.45;;;25.75;;
84510;SDS011;74730;43.858;18.424;2024-01-07T09:10:08;45.42;;;26.00;;
84510;SDS011;74730;43.858;18.424;2024-01-07T09:12:38;45.70;;;24.40;;
84510;SDS011;74730;43.858;18.424;2024-01-07T09:15:04;51.55;;;25.48;;
84510;SDS011;74730;43.858;18.424;2024-01-07T09:17:36;48.65;;;24.48;;
84510;SDS011;74730;43.858;18.424;2024-01-07T09:20:08;44.72;;;24.40;;
84510;SDS011;74730;43.858;18.424;2024-01-07T09:22:35;42.38;;;23.92;;
84510;SDS011;74730;43.858;18.424;2024-01-07T09:25:01;44.17;;;26.65;;
84510;SDS011;74730;43.858;18.424;2024-01-07T09:27:29;43.40;;;25.30;;
84510;SDS011;74730;43.858;18.424;2024-01-07T09:29:55;44.53;;;25.08;;
84510;SDS011;74730;43.858;18.424;2024-01-07T09:32:21;41.50;;;24.65;;
84510;SDS011;74730;43.858;18.424;2024-01-07T09:34:46;42.22;;;24.33;;
84510;SDS011;74730;43.858;18.424;2024-01-07T09:37:12;47.72;;;25.60;;
84510;SDS011;74730;43.858;18.424;2024-01-07T09:39:41;43.92;;;24.75;;
84510;SDS011;74730;43.858;18.424;2024-01-07T09:42:13;48.45;;;26.13;;
84510;SDS011;74730;43.858;18.424;2024-01-07T09:44:42;52.22;;;26.90;;
84510;SDS011;74730;43.858;18.424;2024-01-07T09:47:12;55.72;;;27.77;;
84510;SDS011;74730;43.858;18.424;2024-01-07T09:49:39;43.50;;;25.13;;
84510;SDS011;74730;43.858;18.424;2024-01-07T09:52:07;48.47;;;26.90;;
84510;SDS011;74730;43.858;18.424;2024-01-07T09:54:37;53.30;;;30.00;;
84510;SDS011;74730;43.858;18.424;2024-01-07T09:57:05;47.97;;;25.80;;
84510;SDS011;74730;43.858;18.424;2024-01-07T09:59:32;47.22;;;25.98;;
84510;SDS011;74730;43.858;18.424;2024-01-07T10:01:58;40.13;;;22.88;;
84510;SDS011;74730;43.858;18.424;2024-01-07T10:04:24;46.30;;;24.63;;
84510;SDS011;74730;43.858;18.424;2024-01-07T10:06:50;43.83;;;24.75;;
84510;SDS011;74730;43.858;18.424;2024-01-07T10:09:17;41.80;;;23.83;;
84510;SDS011;74730;43.858;18.424;2024-01-07T10:11:44;47.97;;;23.50;;
84510;SDS011;74730;43.858;18.424;2024-01-07T10:14:10;43.65;;;24.50;;
84510;SDS011;74730;43.858;18.424;2024-01-07T10:16:36;42.58;;;24.95;;
84510;SDS011;74730;43.858;18.424;2024-01-07T10:19:02;39.67;;;23.63;;
84510;SDS011;74730;43.858;18.424;2024-01-07T10:21:27;48.33;;;25.27;;
84510;SDS011;74730;43.858;18.424;2024-01-07T10:24:09;43.00;;;23.42;;
84510;SDS011;74730;43.858;18.424;2024-01-07T10:26:39;45.08;;;24.08;;
84510;SDS011;74730;43.858;18.424;2024-01-07T10:29:05;41.60;;;24.42;;
84510;SDS011;74730;43.858;18.424;2024-01-07T10:31:33;45.42;;;24.42;;
84510;SDS011;74730;43.858;18.424;2024-01-07T10:33:58;41.33;;;22.98;;
84510;SDS011;74730;43.858;18.424;2024-01-07T10:36:24;39.60;;;23.70;;
84510;SDS011;74730;43.858;18.424;2024-01-07T10:38:50;44.65;;;23.65;;
84510;SDS011;74730;43.858;18.424;2024-01-07T10:41:19;38.60;;;21.17;;
84510;SDS011;74730;43.858;18.424;2024-01-07T10:43:48;33.22;;;20.35;;
84510;SDS011;74730;43.858;18.424;2024-01-07T10:46:15;38.47;;;21.85;;
84510;SDS011;74730;43.858;18.424;2024-01-07T10:48:44;38.65;;;21.35;;
84510;SDS011;74730;43.858;18.424;2024-01-07T10:51:19;31.55;;;17.65;;
84510;SDS011;74730;43.858;18.424;2024-01-07T10:53:46;28.08;;;16.45;;
84510;SDS011;74730;43.858;18.424;2024-01-07T10:56:18;28.95;;;16.92;;
84510;SDS011;74730;43.858;18.424;2024-01-07T10:58:52;32.38;;;17.08;;
84510;SDS011;74730;43.858;18.424;2024-01-07T11:01:22;31.73;;;17.13;;
84510;SDS011;74730;43.858;18.424;2024-01-07T11:12:15;24.52;;;14.32;;
84510;SDS011;74730;43.858;18.424;2024-01-07T11:14:41;24.05;;;12.15;;
84510;SDS011;74730;43.858;18.424;2024-01-07T11:17:12;19.45;;;11.35;;
84510;SDS011;74730;43.858;18.424;2024-01-07T11:19:50;22.90;;;10.93;;
84510;SDS011;74730;43.858;18.424;2024-01-07T11:22:26;17.45;;;9.95;;
84510;SDS011;74730;43.858;18.424;2024-01-07T11:24:53;18.63;;;11.15;;
84510;SDS011;74730;43.858;18.424;2024-01-07T11:27:23;17.30;;;9.77;;
84510;SDS011;74730;43.858;18.424;2024-01-07T11:29:53;17.60;;;9.95;;
84510;SDS011;74730;43.858;18.424;2024-01-07T11:32:30;20.77;;;10.98;;
84510;SDS011;74730;43.858;18.424;2024-01-07T11:34:58;17.20;;;9.73;;
84510;SDS011;74730;43.858;18.424;2024-01-07T11:37:24;18.20;;;10.60;;
84510;SDS011;74730;43.858;18.424;2024-01-07T11:39:51;16.48;;;9.07;;
84510;SDS011;74730;43.858;18.424;2024-01-07T11:42:20;14.45;;;8.40;;
84510;SDS011;74730;43.858;18.424;2024-01-07T11:44:48;16.75;;;9.70;;
84510;SDS011;74730;43.858;18.424;2024-01-07T11:47:18;16.77;;;8.98;;
84510;SDS011;74730;43.858;18.424;2024-01-07T11:49:45;13.65;;;8.65;;
84510;SDS011;74730;43.858;18.424;2024-01-07T11:52:11;14.20;;;8.50;;
84510;SDS011;74730;43.858;18.424;2024-01-07T11:54:40;18.85;;;9.05;;
84510;SDS011;74730;43.858;18.424;2024-01-07T11:57:06;16.33;;;8.85;;
84510;SDS011;74730;43.858;18.424;2024-01-07T11:59:35;18.00;;;8.93;;
84510;SDS011;74730;43.858;18.424;2024-01-07T12:02:01;14.75;;;8.38;;
84510;SDS011;74730;43.858;18.424;2024-01-07T12:04:32;16.10;;;8.85;;
84510;SDS011;74730;43.858;18.424;2024-01-07T12:06:58;19.23;;;9.25;;
84510;SDS011;74730;43.858;18.424;2024-01-07T12:09:24;15.45;;;8.52;;
84510;SDS011;74730;43.858;18.424;2024-01-07T12:11:50;16.30;;;8.90;;
84510;SDS011;74730;43.858;18.424;2024-01-07T12:14:16;23.48;;;13.13;;
84510;SDS011;74730;43.858;18.424;2024-01-07T12:16:42;15.82;;;9.07;;
84510;SDS011;74730;43.858;18.424;2024-01-07T12:19:08;20.80;;;10.20;;
84510;SDS011;74730;43.858;18.424;2024-01-07T12:21:35;16.52;;;9.27;;
84510;SDS011;74730;43.858;18.424;2024-01-07T12:24:02;16.08;;;9.35;;
84510;SDS011;74730;43.858;18.424;2024-01-07T12:26:29;16.33;;;9.27;;
84510;SDS011;74730;43.858;18.424;2024-01-07T12:28:57;18.73;;;9.65;;
84510;SDS011;74730;43.858;18.424;2024-01-07T12:31:32;17.45;;;10.07;;
84510;SDS011;74730;43.858;18.424;2024-01-07T12:33:58;17.33;;;10.27;;
84510;SDS011;74730;43.858;18.424;2024-01-07T12:36:24;15.30;;;9.45;;
84510;SDS011;74730;43.858;18.424;2024-01-07T12:38:50;16.13;;;9.85;;
84510;SDS011;74730;43.858;18.424;2024-01-07T12:41:19;17.15;;;9.77;;
84510;SDS011;74730;43.858;18.424;2024-01-07T12:43:45;18.33;;;10.35;;
84510;SDS011;74730;43.858;18.424;2024-01-07T12:46:11;16.58;;;9.27;;
84510;SDS011;74730;43.858;18.424;2024-01-07T12:48:36;16.50;;;9.85;;
84510;SDS011;74730;43.858;18.424;2024-01-07T12:51:02;17.52;;;8.52;;
84510;SDS011;74730;43.858;18.424;2024-01-07T12:53:28;17.27;;;9.95;;
84510;SDS011;74730;43.858;18.424;2024-01-07T12:55:54;16.05;;;9.50;;
84510;SDS011;74730;43.858;18.424;2024-01-07T12:58:20;14.30;;;8.48;;
84510;SDS011;74730;43.858;18.424;2024-01-07T13:00:46;16.38;;;8.77;;
84510;SDS011;74730;43.858;18.424;2024-01-07T13:03:12;15.63;;;8.98;;
84510;SDS011;74730;43.858;18.424;2024-01-07T13:05:43;15.13;;;8.35;;
84510;SDS011;74730;43.858;18.424;2024-01-07T13:08:09;16.40;;;10.38;;
84510;SDS011;74730;43.858;18.424;2024-01-07T13:10:34;18.63;;;9.85;;
84510;SDS011;74730;43.858;18.424;2024-01-07T13:13:00;12.10;;;8.30;;
84510;SDS011;74730;43.858;18.424;2024-01-07T13:15:26;12.85;;;7.90;;
84510;SDS011;74730;43.858;18.424;2024-01-07T13:17:51;16.80;;;9.02;;
84510;SDS011;74730;43.858;18.424;2024-01-07T13:20:17;14.43;;;8.73;;
84510;SDS011;74730;43.858;18.424;2024-01-07T13:22:45;16.58;;;8.95;;
84510;SDS011;74730;43.858;18.424;2024-01-07T13:25:12;17.55;;;9.77;;
84510;SDS011;74730;43.858;18.424;2024-01-07T13:27:37;15.63;;;8.75;;
84510;SDS011;74730;43.858;18.424;2024-01-07T13:30:04;14.48;;;8.07;;
84510;SDS011;74730;43.858;18.424;2024-01-07T13:32:30;13.50;;;7.40;;
84510;SDS011;74730;43.858;18.424;2024-01-07T13:35:00;12.20;;;7.03;;
84510;SDS011;74730;43.858;18.424;2024-01-07T13:37:25;12.27;;;7.82;;
84510;SDS011;74730;43.858;18.424;2024-01-07T13:39:51;12.82;;;7.90;;
84510;SDS011;74730;43.858;18.424;2024-01-07T13:42:16;13.93;;;8.40;;
84510;SDS011;74730;43.858;18.424;2024-01-07T13:44:42;13.60;;;7.50;;
84510;SDS011;74730;43.858;18.424;2024-01-07T13:47:12;13.90;;;8.48;;
84510;SDS011;74730;43.858;18.424;2024-01-07T13:49:39;14.90;;;8.07;;
84510;SDS011;74730;43.858;18.424;2024-01-07T13:52:06;17.95;;;9.52;;
84510;SDS011;74730;43.858;18.424;2024-01-07T13:54:31;16.10;;;8.13;;
84510;SDS011;74730;43.858;18.424;2024-01-07T13:56:57;14.80;;;8.10;;
84510;SDS011;74730;43.858;18.424;2024-01-07T13:59:22;12.50;;;8.38;;
84510;SDS011;74730;43.858;18.424;2024-01-07T14:01:48;14.02;;;7.40;;
84510;SDS011;74730;43.858;18.424;2024-01-07T14:04:14;10.45;;;6.05;;
84510;SDS011;74730;43.858;18.424;2024-01-07T14:06:40;11.88;;;6.90;;
84510;SDS011;74730;43.858;18.424;2024-01-07T14:09:06;10.57;;;6.32;;
84510;SDS011;74730;43.858;18.424;2024-01-07T14:11:34;10.30;;;7.00;;
84510;SDS011;74730;43.858;18.424;2024-01-07T14:14:00;10.60;;;5.47;;
84510;SDS011;74730;43.858;18.424;2024-01-07T14:16:26;10.55;;;6.15;;
84510;SDS011;74730;43.858;18.424;2024-01-07T14:18:52;11.30;;;6.85;;
84510;SDS011;74730;43.858;18.424;2024-01-07T14:21:18;10.38;;;6.40;;
84510;SDS011;74730;43.858;18.424;2024-01-07T14:23:43;11.75;;;6.30;;
84510;SDS011;74730;43.858;18.424;2024-01-07T14:26:09;13.20;;;6.60;;